88R weather

Spicewood Airport
Spicewood, Texas, United States

Public forecast

Using degrees Fahrenheit for public forecast. Weather courtesy of forecast.io.

METAR (pilot weather report)

Closest report is Lago Vista Tx Rusty Allen Airport, 7.9 nm (14.7 km) E. Retrieved 2019/07/16 08:35 UTC (0 seconds ago):

KRYW 160835Z AUTO 18006KT 10SM CLR 25/23 A2999 RMK AO2 T02450231

TAF (pilot weather forecast)

Closest forecast is Austin Bergstrom International Airport, 28.9 nm (53.6 km) SE. Retrieved 2019/07/16 06:39 UTC (1 hour ago):

TAF KAUS 160537Z 1606/1712 18010KT P6SM SCT250 FM161100 18005KT P6SM SCT025 FM161600 19012KT P6SM SCT250 FM170900 18005KT P6SM BKN015